Alyeska Resort
Max's Hourly Weather Roundup
ALYESKA_MAX 6/30/2016
Click Here for Graph

        DATE  TIME   Air  Wind  Wind  Wind  BATT   Rel
                    Temp   Spd   Dir  Gust  Volt  Hum%
                      F   MPH   AVG   MPH   AVG   AVG

   6/30/2016 23:00    45     4   205    10 12.97    99
   6/30/2016 22:00    46     2   138     6 13.11   100
   6/30/2016 21:00    46     2   155     4 13.47    99
   6/30/2016 20:00    48     2   225     6 13.99    94
   6/30/2016 19:00    49     4   270     9 13.93    92
   6/30/2016 18:00    52     4   150    16 13.89    85
   6/30/2016 17:00    56     4   131    16 13.80    79
   6/30/2016 16:00    57     5   113    17 13.80    79
   6/30/2016 15:00    54     6   193    15 13.82    88
   6/30/2016 14:00    51     4   226     9 13.76    93
   6/30/2016 13:00    51     2   174     9 13.75    90
   6/30/2016 12:00    51     2   172     9 13.68    89
   6/30/2016 11:00    49     4   165    10 13.67    87
   6/30/2016 10:00    50     1   174     3 13.65    83
   6/30/2016 09:00    48     3   116     6 13.63    88
   6/30/2016 08:00    48     3    93     6 13.67    89
   6/30/2016 07:00    48     3   184     7 13.08    85
   6/30/2016 06:00    47     2   257     4 12.81    84
   6/30/2016 05:00    46     1   294     3 12.80    86
   6/30/2016 04:00    46     1   230     2 12.83    87
   6/30/2016 03:00    47     1   201     3 12.86    86
   6/30/2016 02:00    47     0   189     2 12.90    88
   6/30/2016 01:00    47     1   243     3 12.96    92
   6/29/2016 24:00    47     1   282     5 13.09    91


Click Here for Graph